Ana Sayfa
METAR-TAF:

METAR-TAF

Havaalanları :

Gran Canaria, İspanya

Gran Canaria Havalimanı

Enlem: 27-56N, Boylam: 015-23W, yükseklik: 23 m

Güncel hava durumu gözlemi

Rapor saat 07:00 UTC de 33 dakika önce yapıldı.
Rüzgar kuzey/kuzeybatıdan 5 kt
Sıcaklık 16°C
Nem 63%
Basınç 1015 hPa
Görüş mesafesi 10 km veya daha fazla
3000 ft yükseklikte az bulutlu

METAR: GCLP 210700Z 33005KT 9999 FEW030 16/09 Q1015 NOSIG

Saat: 08:33 (07:33 UTC)

Tahmin

Rapor saat 02:00 UTC de 5 saat ve 33 dakika önce yapıldı.
Ayın 21'si saat 03 UTC'den ayın 22'si saat 03 UTC'ye kadar geçerli Tahmin
Rüzgar kuzeybatıdan 10 kt
Görüş mesafesi 10 km veya daha fazla
4000 ft yükseklikte parçalı bulutlu
Dönüşüyor
ayın 21'si saat 08 UTC'den ayın 21'si saat 10 UTC'ye kadar
Rüzgar güneydan 6 kt

TAF: GCLP 210200Z 2103/2203 32010KT 9999 SCT040 TX20/2114Z TN14/2106Z BECMG 2108/2110 18006KT

4.000'den fazla havaalanı için hava durumu gözlemleri ve tahminleri (METAR ve TAF raporları).

Kullanılabilir istasyonlar harita üzerinde sarı ve kırmızı noktalarla gösterilir.

İstasyonun adını görmek için fareyi noktanın üzerinde gezdirin.

Sonrasında hava gözlem ve tahminlerini görmek için tıklayın.

Haritayı değiştirmek için: yaklaştırmak için siyah artı işaretli yeşil düğmeye ve uzaklaştırmak için de eksi işaretli düğmeye hızla tıklayın; bitişik haritalar için yeşil okları kullanın.


METAR-TAF: